sensor_id;sensor_type;location;lat;lon;timestamp;P1;durP1;ratioP1;P2;durP2;ratioP2
10335;SDS011;5213;53.548;9.930;2023-04-02T00:02:30;5.10;;;1.30;;
10335;SDS011;5213;53.548;9.930;2023-04-02T00:07:45;3.58;;;1.30;;
10335;SDS011;5213;53.548;9.930;2023-04-02T00:10:26;2.30;;;1.80;;
10335;SDS011;5213;53.548;9.930;2023-04-02T00:13:03;5.15;;;1.63;;
10335;SDS011;5213;53.548;9.930;2023-04-02T00:15:30;3.97;;;1.58;;
10335;SDS011;5213;53.548;9.930;2023-04-02T00:17:57;4.70;;;1.90;;
10335;SDS011;5213;53.548;9.930;2023-04-02T00:20:23;5.57;;;1.35;;
10335;SDS011;5213;53.548;9.930;2023-04-02T00:22:50;4.25;;;1.50;;
10335;SDS011;5213;53.548;9.930;2023-04-02T00:25:16;2.53;;;1.23;;
10335;SDS011;5213;53.548;9.930;2023-04-02T00:27:42;4.55;;;1.50;;
10335;SDS011;5213;53.548;9.930;2023-04-02T00:30:10;3.22;;;1.20;;
10335;SDS011;5213;53.548;9.930;2023-04-02T00:32:37;1.77;;;1.30;;
10335;SDS011;5213;53.548;9.930;2023-04-02T00:35:08;3.92;;;1.20;;
10335;SDS011;5213;53.548;9.930;2023-04-02T00:37:35;2.92;;;1.42;;
10335;SDS011;5213;53.548;9.930;2023-04-02T00:40:22;2.33;;;1.30;;
10335;SDS011;5213;53.548;9.930;2023-04-02T00:42:49;2.90;;;1.55;;
10335;SDS011;5213;53.548;9.930;2023-04-02T00:45:21;3.83;;;1.52;;
10335;SDS011;5213;53.548;9.930;2023-04-02T00:47:48;2.88;;;1.40;;
10335;SDS011;5213;53.548;9.930;2023-04-02T00:52:42;6.28;;;1.50;;
10335;SDS011;5213;53.548;9.930;2023-04-02T00:55:13;3.10;;;1.80;;
10335;SDS011;5213;53.548;9.930;2023-04-02T00:57:41;3.90;;;1.60;;
10335;SDS011;5213;53.548;9.930;2023-04-02T01:00:19;2.33;;;1.10;;
10335;SDS011;5213;53.548;9.930;2023-04-02T01:05:33;2.25;;;1.20;;
10335;SDS011;5213;53.548;9.930;2023-04-02T01:15:36;2.25;;;1.40;;
10335;SDS011;5213;53.548;9.930;2023-04-02T01:18:12;3.20;;;1.30;;
10335;SDS011;5213;53.548;9.930;2023-04-02T01:23:20;2.30;;;1.30;;
10335;SDS011;5213;53.548;9.930;2023-04-02T01:30:51;3.75;;;1.40;;
10335;SDS011;5213;53.548;9.930;2023-04-02T01:33:26;2.45;;;1.10;;
10335;SDS011;5213;53.548;9.930;2023-04-02T01:35:58;4.50;;;1.40;;
10335;SDS011;5213;53.548;9.930;2023-04-02T01:38:28;2.05;;;1.17;;
10335;SDS011;5213;53.548;9.930;2023-04-02T01:41:16;3.28;;;1.30;;
10335;SDS011;5213;53.548;9.930;2023-04-02T01:43:47;3.17;;;1.25;;
10335;SDS011;5213;53.548;9.930;2023-04-02T01:46:29;1.65;;;1.35;;
10335;SDS011;5213;53.548;9.930;2023-04-02T01:48:56;1.60;;;1.10;;
10335;SDS011;5213;53.548;9.930;2023-04-02T01:51:27;2.55;;;1.08;;
10335;SDS011;5213;53.548;9.930;2023-04-02T01:53:53;1.80;;;1.10;;
10335;SDS011;5213;53.548;9.930;2023-04-02T01:56:20;4.97;;;1.30;;
10335;SDS011;5213;53.548;9.930;2023-04-02T01:58:46;2.10;;;1.10;;
10335;SDS011;5213;53.548;9.930;2023-04-02T02:01:14;1.33;;;1.10;;
10335;SDS011;5213;53.548;9.930;2023-04-02T02:03:42;2.38;;;1.10;;
10335;SDS011;5213;53.548;9.930;2023-04-02T02:06:12;2.78;;;1.30;;
10335;SDS011;5213;53.548;9.930;2023-04-02T02:08:46;3.03;;;1.20;;
10335;SDS011;5213;53.548;9.930;2023-04-02T02:11:14;1.88;;;1.17;;
10335;SDS011;5213;53.548;9.930;2023-04-02T02:13:44;1.85;;;1.10;;
10335;SDS011;5213;53.548;9.930;2023-04-02T02:16:10;2.38;;;1.17;;
10335;SDS011;5213;53.548;9.930;2023-04-02T02:18:41;4.90;;;1.33;;
10335;SDS011;5213;53.548;9.930;2023-04-02T02:21:08;2.55;;;1.20;;
10335;SDS011;5213;53.548;9.930;2023-04-02T02:23:35;2.90;;;1.20;;
10335;SDS011;5213;53.548;9.930;2023-04-02T02:26:03;4.50;;;1.50;;
10335;SDS011;5213;53.548;9.930;2023-04-02T02:28:30;1.40;;;1.30;;
10335;SDS011;5213;53.548;9.930;2023-04-02T02:31:06;2.88;;;1.52;;
10335;SDS011;5213;53.548;9.930;2023-04-02T02:33:40;2.20;;;1.58;;
10335;SDS011;5213;53.548;9.930;2023-04-02T02:36:30;1.83;;;1.50;;
10335;SDS011;5213;53.548;9.930;2023-04-02T02:38:59;2.72;;;1.40;;
10335;SDS011;5213;53.548;9.930;2023-04-02T02:41:38;1.17;;;1.08;;
10335;SDS011;5213;53.548;9.930;2023-04-02T02:46:39;3.17;;;1.45;;
10335;SDS011;5213;53.548;9.930;2023-04-02T02:49:06;2.22;;;1.38;;
10335;SDS011;5213;53.548;9.930;2023-04-02T02:51:39;4.13;;;1.50;;
10335;SDS011;5213;53.548;9.930;2023-04-02T02:54:06;2.95;;;1.40;;
10335;SDS011;5213;53.548;9.930;2023-04-02T02:56:33;3.13;;;1.30;;
10335;SDS011;5213;53.548;9.930;2023-04-02T02:59:01;2.65;;;1.50;;
10335;SDS011;5213;53.548;9.930;2023-04-02T03:01:29;2.42;;;1.50;;
10335;SDS011;5213;53.548;9.930;2023-04-02T03:03:55;4.35;;;1.30;;
10335;SDS011;5213;53.548;9.930;2023-04-02T03:06:22;1.48;;;1.20;;
10335;SDS011;5213;53.548;9.930;2023-04-02T03:11:41;3.78;;;1.20;;
10335;SDS011;5213;53.548;9.930;2023-04-02T03:14:14;2.08;;;1.30;;
10335;SDS011;5213;53.548;9.930;2023-04-02T03:16:44;5.20;;;1.40;;
10335;SDS011;5213;53.548;9.930;2023-04-02T03:19:28;1.85;;;1.40;;
10335;SDS011;5213;53.548;9.930;2023-04-02T03:21:58;2.83;;;1.38;;
10335;SDS011;5213;53.548;9.930;2023-04-02T03:24:32;2.20;;;1.27;;
10335;SDS011;5213;53.548;9.930;2023-04-02T03:27:10;3.55;;;1.45;;
10335;SDS011;5213;53.548;9.930;2023-04-02T03:29:41;3.53;;;1.30;;
10335;SDS011;5213;53.548;9.930;2023-04-02T03:34:41;1.38;;;1.10;;
10335;SDS011;5213;53.548;9.930;2023-04-02T03:37:26;2.03;;;1.30;;
10335;SDS011;5213;53.548;9.930;2023-04-02T03:42:22;2.65;;;1.27;;
10335;SDS011;5213;53.548;9.930;2023-04-02T03:44:59;3.50;;;1.40;;
10335;SDS011;5213;53.548;9.930;2023-04-02T03:49:55;4.65;;;1.23;;
10335;SDS011;5213;53.548;9.930;2023-04-02T03:52:24;1.85;;;1.13;;
10335;SDS011;5213;53.548;9.930;2023-04-02T03:54:51;1.42;;;1.13;;
10335;SDS011;5213;53.548;9.930;2023-04-02T03:57:21;3.50;;;1.23;;
10335;SDS011;5213;53.548;9.930;2023-04-02T03:59:53;2.95;;;1.40;;
10335;SDS011;5213;53.548;9.930;2023-04-02T04:02:38;3.35;;;1.20;;
10335;SDS011;5213;53.548;9.930;2023-04-02T04:05:06;2.78;;;1.20;;
10335;SDS011;5213;53.548;9.930;2023-04-02T04:07:40;4.00;;;1.30;;
10335;SDS011;5213;53.548;9.930;2023-04-02T04:10:08;1.75;;;1.20;;
10335;SDS011;5213;53.548;9.930;2023-04-02T04:12:42;2.00;;;1.20;;
10335;SDS011;5213;53.548;9.930;2023-04-02T04:15:28;3.95;;;1.27;;
10335;SDS011;5213;53.548;9.930;2023-04-02T04:18:01;4.18;;;1.40;;
10335;SDS011;5213;53.548;9.930;2023-04-02T04:20:29;4.22;;;1.50;;
10335;SDS011;5213;53.548;9.930;2023-04-02T04:23:07;2.33;;;1.40;;
10335;SDS011;5213;53.548;9.930;2023-04-02T04:25:33;2.67;;;1.30;;
10335;SDS011;5213;53.548;9.930;2023-04-02T04:30:47;1.48;;;1.10;;
10335;SDS011;5213;53.548;9.930;2023-04-02T04:33:20;1.33;;;1.20;;
10335;SDS011;5213;53.548;9.930;2023-04-02T04:35:48;5.10;;;1.60;;
10335;SDS011;5213;53.548;9.930;2023-04-02T04:38:18;1.85;;;1.10;;
10335;SDS011;5213;53.548;9.930;2023-04-02T04:40:52;3.08;;;1.10;;
10335;SDS011;5213;53.548;9.930;2023-04-02T04:43:25;1.90;;;1.10;;
10335;SDS011;5213;53.548;9.930;2023-04-02T04:46:30;6.05;;;1.20;;
10335;SDS011;5213;53.548;9.930;2023-04-02T04:48:55;2.22;;;1.30;;
10335;SDS011;5213;53.548;9.930;2023-04-02T04:51:31;2.92;;;1.30;;
10335;SDS011;5213;53.548;9.930;2023-04-02T04:53:59;3.42;;;1.45;;
10335;SDS011;5213;53.548;9.930;2023-04-02T04:56:27;2.15;;;1.20;;
10335;SDS011;5213;53.548;9.930;2023-04-02T04:59:01;3.05;;;1.30;;
10335;SDS011;5213;53.548;9.930;2023-04-02T05:01:39;3.30;;;1.08;;
10335;SDS011;5213;53.548;9.930;2023-04-02T05:04:18;2.38;;;1.30;;
10335;SDS011;5213;53.548;9.930;2023-04-02T05:17:49;2.92;;;1.20;;
10335;SDS011;5213;53.548;9.930;2023-04-02T05:20:19;2.08;;;1.30;;
10335;SDS011;5213;53.548;9.930;2023-04-02T05:25:18;2.05;;;1.10;;
10335;SDS011;5213;53.548;9.930;2023-04-02T05:28:00;3.40;;;1.00;;
10335;SDS011;5213;53.548;9.930;2023-04-02T05:35:22;2.10;;;1.27;;
10335;SDS011;5213;53.548;9.930;2023-04-02T05:37:50;1.77;;;1.02;;
10335;SDS011;5213;53.548;9.930;2023-04-02T05:40:36;2.53;;;1.30;;
10335;SDS011;5213;53.548;9.930;2023-04-02T05:43:03;1.17;;;1.05;;
10335;SDS011;5213;53.548;9.930;2023-04-02T05:45:33;3.05;;;1.20;;
10335;SDS011;5213;53.548;9.930;2023-04-02T05:48:01;2.33;;;0.90;;
10335;SDS011;5213;53.548;9.930;2023-04-02T05:50:33;1.20;;;1.00;;
10335;SDS011;5213;53.548;9.930;2023-04-02T05:58:06;1.45;;;1.20;;
10335;SDS011;5213;53.548;9.930;2023-04-02T06:03:05;2.00;;;1.15;;
10335;SDS011;5213;53.548;9.930;2023-04-02T06:05:34;2.15;;;1.20;;
10335;SDS011;5213;53.548;9.930;2023-04-02T06:08:13;3.20;;;1.20;;
10335;SDS011;5213;53.548;9.930;2023-04-02T06:10:46;8.93;;;1.30;;
10335;SDS011;5213;53.548;9.930;2023-04-02T06:13:16;2.00;;;0.95;;
10335;SDS011;5213;53.548;9.930;2023-04-02T06:15:43;1.60;;;1.27;;
10335;SDS011;5213;53.548;9.930;2023-04-02T06:20:38;2.05;;;1.20;;
10335;SDS011;5213;53.548;9.930;2023-04-02T06:23:18;2.58;;;1.10;;
10335;SDS011;5213;53.548;9.930;2023-04-02T06:25:47;3.50;;;1.25;;
10335;SDS011;5213;53.548;9.930;2023-04-02T06:28:16;2.92;;;1.20;;
10335;SDS011;5213;53.548;9.930;2023-04-02T06:30:42;1.10;;;1.00;;
10335;SDS011;5213;53.548;9.930;2023-04-02T06:33:12;2.03;;;1.17;;
10335;SDS011;5213;53.548;9.930;2023-04-02T06:35:42;2.80;;;1.00;;
10335;SDS011;5213;53.548;9.930;2023-04-02T06:38:14;3.10;;;1.02;;
10335;SDS011;5213;53.548;9.930;2023-04-02T06:43:29;2.80;;;1.20;;
10335;SDS011;5213;53.548;9.930;2023-04-02T06:45:58;2.05;;;1.02;;
10335;SDS011;5213;53.548;9.930;2023-04-02T06:48:26;1.73;;;1.17;;
10335;SDS011;5213;53.548;9.930;2023-04-02T06:50:56;1.58;;;1.08;;
10335;SDS011;5213;53.548;9.930;2023-04-02T06:53:25;1.52;;;1.00;;
10335;SDS011;5213;53.548;9.930;2023-04-02T06:58:37;1.73;;;1.33;;
10335;SDS011;5213;53.548;9.930;2023-04-02T07:01:03;2.55;;;1.00;;
10335;SDS011;5213;53.548;9.930;2023-04-02T07:03:30;2.40;;;1.10;;
10335;SDS011;5213;53.548;9.930;2023-04-02T07:05:56;2.20;;;1.20;;
10335;SDS011;5213;53.548;9.930;2023-04-02T07:08:23;3.13;;;1.10;;
10335;SDS011;5213;53.548;9.930;2023-04-02T07:10:49;3.67;;;1.02;;
10335;SDS011;5213;53.548;9.930;2023-04-02T07:13:17;1.27;;;0.82;;
10335;SDS011;5213;53.548;9.930;2023-04-02T07:15:44;2.38;;;1.15;;
10335;SDS011;5213;53.548;9.930;2023-04-02T07:18:23;2.03;;;1.00;;
10335;SDS011;5213;53.548;9.930;2023-04-02T07:20:50;0.93;;;0.90;;
10335;SDS011;5213;53.548;9.930;2023-04-02T07:23:16;3.45;;;1.23;;
10335;SDS011;5213;53.548;9.930;2023-04-02T07:25:44;2.10;;;1.10;;
10335;SDS011;5213;53.548;9.930;2023-04-02T07:28:11;1.23;;;1.00;;
10335;SDS011;5213;53.548;9.930;2023-04-02T07:30:38;2.35;;;1.00;;
10335;SDS011;5213;53.548;9.930;2023-04-02T07:33:05;1.48;;;0.80;;
10335;SDS011;5213;53.548;9.930;2023-04-02T07:35:31;1.65;;;0.90;;
10335;SDS011;5213;53.548;9.930;2023-04-02T07:37:58;2.00;;;0.90;;
10335;SDS011;5213;53.548;9.930;2023-04-02T07:40:24;0.80;;;0.80;;
10335;SDS011;5213;53.548;9.930;2023-04-02T07:42:50;2.08;;;0.98;;
10335;SDS011;5213;53.548;9.930;2023-04-02T07:45:16;1.38;;;0.90;;
10335;SDS011;5213;53.548;9.930;2023-04-02T07:47:43;0.70;;;0.70;;
10335;SDS011;5213;53.548;9.930;2023-04-02T07:50:09;1.73;;;1.08;;
10335;SDS011;5213;53.548;9.930;2023-04-02T07:52:39;1.58;;;1.08;;
10335;SDS011;5213;53.548;9.930;2023-04-02T07:55:07;1.63;;;0.82;;
10335;SDS011;5213;53.548;9.930;2023-04-02T07:57:36;1.95;;;0.70;;
10335;SDS011;5213;53.548;9.930;2023-04-02T08:00:03;1.45;;;0.90;;
10335;SDS011;5213;53.548;9.930;2023-04-02T08:02:31;1.48;;;0.80;;
10335;SDS011;5213;53.548;9.930;2023-04-02T08:04:57;1.08;;;0.95;;
10335;SDS011;5213;53.548;9.930;2023-04-02T08:07:23;1.38;;;0.88;;
10335;SDS011;5213;53.548;9.930;2023-04-02T08:09:50;0.93;;;0.82;;
10335;SDS011;5213;53.548;9.930;2023-04-02T08:12:17;2.42;;;1.10;;
10335;SDS011;5213;53.548;9.930;2023-04-02T08:14:43;0.77;;;0.70;;
10335;SDS011;5213;53.548;9.930;2023-04-02T08:17:09;1.08;;;0.98;;
10335;SDS011;5213;53.548;9.930;2023-04-02T08:19:35;2.13;;;1.20;;
10335;SDS011;5213;53.548;9.930;2023-04-02T08:22:01;1.50;;;0.90;;
10335;SDS011;5213;53.548;9.930;2023-04-02T08:24:27;0.80;;;0.80;;
10335;SDS011;5213;53.548;9.930;2023-04-02T08:26:53;1.75;;;1.00;;
10335;SDS011;5213;53.548;9.930;2023-04-02T08:29:19;1.58;;;0.90;;
10335;SDS011;5213;53.548;9.930;2023-04-02T08:31:45;1.77;;;1.30;;
10335;SDS011;5213;53.548;9.930;2023-04-02T08:34:12;1.10;;;1.00;;
10335;SDS011;5213;53.548;9.930;2023-04-02T08:36:38;3.03;;;1.20;;
10335;SDS011;5213;53.548;9.930;2023-04-02T08:39:05;1.38;;;1.00;;
10335;SDS011;5213;53.548;9.930;2023-04-02T08:41:58;1.13;;;0.93;;
10335;SDS011;5213;53.548;9.930;2023-04-02T08:44:26;2.50;;;1.10;;
10335;SDS011;5213;53.548;9.930;2023-04-02T08:46:59;1.83;;;1.45;;
10335;SDS011;5213;53.548;9.930;2023-04-02T08:49:39;1.50;;;1.05;;
10335;SDS011;5213;53.548;9.930;2023-04-02T08:52:49;2.83;;;1.00;;
10335;SDS011;5213;53.548;9.930;2023-04-02T08:54:56;1.63;;;1.00;;
10335;SDS011;5213;53.548;9.930;2023-04-02T09:02:43;0.98;;;0.90;;
10335;SDS011;5213;53.548;9.930;2023-04-02T09:05:31;1.88;;;0.95;;
10335;SDS011;5213;53.548;9.930;2023-04-02T09:07:58;1.45;;;0.90;;
10335;SDS011;5213;53.548;9.930;2023-04-02T09:13:15;1.83;;;0.88;;
10335;SDS011;5213;53.548;9.930;2023-04-02T09:15:42;1.08;;;1.00;;
10335;SDS011;5213;53.548;9.930;2023-04-02T09:18:12;4.13;;;1.00;;
10335;SDS011;5213;53.548;9.930;2023-04-02T09:20:38;2.35;;;0.93;;
10335;SDS011;5213;53.548;9.930;2023-04-02T09:23:05;1.15;;;0.98;;
10335;SDS011;5213;53.548;9.930;2023-04-02T09:25:32;2.00;;;0.88;;
10335;SDS011;5213;53.548;9.930;2023-04-02T09:28:02;1.05;;;0.98;;
10335;SDS011;5213;53.548;9.930;2023-04-02T09:30:32;1.05;;;0.90;;
10335;SDS011;5213;53.548;9.930;2023-04-02T09:33:03;1.20;;;0.80;;
10335;SDS011;5213;53.548;9.930;2023-04-02T09:35:54;1.27;;;1.00;;
10335;SDS011;5213;53.548;9.930;2023-04-02T09:38:26;2.00;;;1.00;;
10335;SDS011;5213;53.548;9.930;2023-04-02T09:43:24;2.03;;;1.00;;
10335;SDS011;5213;53.548;9.930;2023-04-02T09:45:54;2.60;;;0.85;;
10335;SDS011;5213;53.548;9.930;2023-04-02T09:50:47;1.95;;;1.17;;
10335;SDS011;5213;53.548;9.930;2023-04-02T09:53:29;1.33;;;1.02;;
10335;SDS011;5213;53.548;9.930;2023-04-02T09:59:01;2.05;;;1.02;;
10335;SDS011;5213;53.548;9.930;2023-04-02T10:03:53;1.50;;;1.15;;
10335;SDS011;5213;53.548;9.930;2023-04-02T10:06:20;2.10;;;1.00;;
10335;SDS011;5213;53.548;9.930;2023-04-02T10:08:46;1.60;;;1.02;;
10335;SDS011;5213;53.548;9.930;2023-04-02T10:13:42;2.15;;;1.40;;
10335;SDS011;5213;53.548;9.930;2023-04-02T10:21:12;2.70;;;1.10;;
10335;SDS011;5213;53.548;9.930;2023-04-02T10:23:40;2.58;;;1.20;;
10335;SDS011;5213;53.548;9.930;2023-04-02T10:31:25;1.38;;;0.90;;
10335;SDS011;5213;53.548;9.930;2023-04-02T10:33:57;0.70;;;0.70;;
10335;SDS011;5213;53.548;9.930;2023-04-02T10:36:38;1.35;;;0.95;;
10335;SDS011;5213;53.548;9.930;2023-04-02T10:42:08;1.33;;;1.10;;
10335;SDS011;5213;53.548;9.930;2023-04-02T10:45:12;2.50;;;1.00;;
10335;SDS011;5213;53.548;9.930;2023-04-02T10:47:51;2.40;;;1.20;;
10335;SDS011;5213;53.548;9.930;2023-04-02T10:53:14;1.35;;;0.90;;
10335;SDS011;5213;53.548;9.930;2023-04-02T10:55:41;2.13;;;1.30;;
10335;SDS011;5213;53.548;9.930;2023-04-02T10:58:19;3.15;;;2.63;;
10335;SDS011;5213;53.548;9.930;2023-04-02T11:00:47;2.58;;;1.30;;
10335;SDS011;5213;53.548;9.930;2023-04-02T11:10:47;1.55;;;1.25;;
10335;SDS011;5213;53.548;9.930;2023-04-02T11:15:49;2.15;;;1.13;;
10335;SDS011;5213;53.548;9.930;2023-04-02T11:18:48;1.40;;;0.80;;
10335;SDS011;5213;53.548;9.930;2023-04-02T11:24:00;1.25;;;1.20;;
10335;SDS011;5213;53.548;9.930;2023-04-02T11:26:27;1.20;;;1.10;;
10335;SDS011;5213;53.548;9.930;2023-04-02T11:29:05;2.88;;;2.05;;
10335;SDS011;5213;53.548;9.930;2023-04-02T11:31:32;2.30;;;2.00;;
10335;SDS011;5213;53.548;9.930;2023-04-02T11:33:59;2.38;;;1.65;;
10335;SDS011;5213;53.548;9.930;2023-04-02T11:39:10;1.33;;;1.10;;
10335;SDS011;5213;53.548;9.930;2023-04-02T11:44:22;0.88;;;0.80;;
10335;SDS011;5213;53.548;9.930;2023-04-02T11:46:48;2.10;;;1.30;;
10335;SDS011;5213;53.548;9.930;2023-04-02T11:52:03;1.25;;;1.10;;
10335;SDS011;5213;53.548;9.930;2023-04-02T11:54:31;1.23;;;0.95;;
10335;SDS011;5213;53.548;9.930;2023-04-02T11:57:00;0.93;;;0.90;;
10335;SDS011;5213;53.548;9.930;2023-04-02T11:59:44;1.20;;;0.95;;
10335;SDS011;5213;53.548;9.930;2023-04-02T12:02:18;1.67;;;1.00;;
10335;SDS011;5213;53.548;9.930;2023-04-02T12:07:53;3.70;;;1.67;;
10335;SDS011;5213;53.548;9.930;2023-04-02T12:10:23;2.45;;;1.67;;
10335;SDS011;5213;53.548;9.930;2023-04-02T12:12:51;2.47;;;1.70;;
10335;SDS011;5213;53.548;9.930;2023-04-02T12:18:20;1.52;;;1.30;;
10335;SDS011;5213;53.548;9.930;2023-04-02T12:20:47;2.00;;;1.30;;
10335;SDS011;5213;53.548;9.930;2023-04-02T12:23:15;1.88;;;0.98;;
10335;SDS011;5213;53.548;9.930;2023-04-02T12:25:42;16.65;;;1.60;;
10335;SDS011;5213;53.548;9.930;2023-04-02T12:28:16;0.93;;;0.90;;
10335;SDS011;5213;53.548;9.930;2023-04-02T12:30:43;1.35;;;0.93;;
10335;SDS011;5213;53.548;9.930;2023-04-02T12:33:24;1.20;;;1.10;;
10335;SDS011;5213;53.548;9.930;2023-04-02T12:35:54;1.05;;;0.98;;
10335;SDS011;5213;53.548;9.930;2023-04-02T12:40:54;2.13;;;0.90;;
10335;SDS011;5213;53.548;9.930;2023-04-02T12:45:53;1.10;;;0.88;;
10335;SDS011;5213;53.548;9.930;2023-04-02T12:48:20;2.22;;;1.10;;
10335;SDS011;5213;53.548;9.930;2023-04-02T12:50:46;2.25;;;1.10;;
10335;SDS011;5213;53.548;9.930;2023-04-02T12:53:20;2.20;;;1.35;;
10335;SDS011;5213;53.548;9.930;2023-04-02T12:55:48;1.20;;;1.10;;
10335;SDS011;5213;53.548;9.930;2023-04-02T13:00:50;2.20;;;1.42;;
10335;SDS011;5213;53.548;9.930;2023-04-02T13:03:20;1.15;;;1.00;;
10335;SDS011;5213;53.548;9.930;2023-04-02T13:05:51;1.00;;;1.00;;
10335;SDS011;5213;53.548;9.930;2023-04-02T13:08:19;2.00;;;1.13;;
10335;SDS011;5213;53.548;9.930;2023-04-02T13:10:51;2.65;;;1.15;;
10335;SDS011;5213;53.548;9.930;2023-04-02T13:13:18;1.50;;;1.40;;
10335;SDS011;5213;53.548;9.930;2023-04-02T13:15:47;3.85;;;1.30;;
10335;SDS011;5213;53.548;9.930;2023-04-02T13:18:24;2.70;;;1.20;;
10335;SDS011;5213;53.548;9.930;2023-04-02T13:20:57;1.23;;;1.10;;
10335;SDS011;5213;53.548;9.930;2023-04-02T13:25:58;3.35;;;1.35;;
10335;SDS011;5213;53.548;9.930;2023-04-02T13:28:25;1.80;;;1.10;;
10335;SDS011;5213;53.548;9.930;2023-04-02T13:30:51;1.35;;;1.15;;
10335;SDS011;5213;53.548;9.930;2023-04-02T13:33:17;3.63;;;2.10;;
10335;SDS011;5213;53.548;9.930;2023-04-02T13:35:44;3.13;;;1.10;;
10335;SDS011;5213;53.548;9.930;2023-04-02T13:38:11;1.77;;;1.30;;
10335;SDS011;5213;53.548;9.930;2023-04-02T13:40:37;2.13;;;1.50;;
10335;SDS011;5213;53.548;9.930;2023-04-02T13:43:03;1.58;;;1.10;;
10335;SDS011;5213;53.548;9.930;2023-04-02T13:45:33;1.15;;;1.05;;
10335;SDS011;5213;53.548;9.930;2023-04-02T13:48:01;1.60;;;0.98;;
10335;SDS011;5213;53.548;9.930;2023-04-02T13:50:28;1.23;;;1.10;;
10335;SDS011;5213;53.548;9.930;2023-04-02T13:52:56;2.60;;;1.10;;
10335;SDS011;5213;53.548;9.930;2023-04-02T13:55:23;1.05;;;1.00;;
10335;SDS011;5213;53.548;9.930;2023-04-02T13:57:49;1.30;;;1.20;;
10335;SDS011;5213;53.548;9.930;2023-04-02T14:00:16;1.67;;;1.27;;
10335;SDS011;5213;53.548;9.930;2023-04-02T14:02:43;1.35;;;1.25;;
10335;SDS011;5213;53.548;9.930;2023-04-02T14:05:16;2.58;;;1.30;;
10335;SDS011;5213;53.548;9.930;2023-04-02T14:13:12;1.27;;;1.17;;
10335;SDS011;5213;53.548;9.930;2023-04-02T14:19:14;3.05;;;1.08;;
10335;SDS011;5213;53.548;9.930;2023-04-02T14:21:32;1.35;;;1.10;;
10335;SDS011;5213;53.548;9.930;2023-04-02T14:24:18;1.35;;;1.20;;
10335;SDS011;5213;53.548;9.930;2023-04-02T14:27:09;2.05;;;1.30;;
10335;SDS011;5213;53.548;9.930;2023-04-02T14:29:59;3.15;;;1.83;;
10335;SDS011;5213;53.548;9.930;2023-04-02T14:32:32;1.63;;;1.30;;
10335;SDS011;5213;53.548;9.930;2023-04-02T14:42:37;2.28;;;1.50;;
10335;SDS011;5213;53.548;9.930;2023-04-02T14:45:11;2.40;;;1.45;;
10335;SDS011;5213;53.548;9.930;2023-04-02T14:47:43;4.80;;;2.50;;
10335;SDS011;5213;53.548;9.930;2023-04-02T14:50:11;2.92;;;1.95;;
10335;SDS011;5213;53.548;9.930;2023-04-02T14:52:38;3.20;;;2.10;;
10335;SDS011;5213;53.548;9.930;2023-04-02T14:55:17;2.17;;;1.98;;
10335;SDS011;5213;53.548;9.930;2023-04-02T14:57:47;1.92;;;1.60;;
10335;SDS011;5213;53.548;9.930;2023-04-02T15:02:46;7.72;;;3.97;;
10335;SDS011;5213;53.548;9.930;2023-04-02T15:07:42;2.08;;;1.70;;
10335;SDS011;5213;53.548;9.930;2023-04-02T15:10:14;4.57;;;1.83;;
10335;SDS011;5213;53.548;9.930;2023-04-02T15:12:41;4.35;;;2.60;;
10335;SDS011;5213;53.548;9.930;2023-04-02T15:15:29;3.83;;;2.20;;
10335;SDS011;5213;53.548;9.930;2023-04-02T15:17:57;5.78;;;2.65;;
10335;SDS011;5213;53.548;9.930;2023-04-02T15:20:23;4.50;;;2.58;;
10335;SDS011;5213;53.548;9.930;2023-04-02T15:23:12;3.10;;;2.58;;
10335;SDS011;5213;53.548;9.930;2023-04-02T15:28:16;4.85;;;2.95;;
10335;SDS011;5213;53.548;9.930;2023-04-02T15:30:43;4.78;;;2.72;;
10335;SDS011;5213;53.548;9.930;2023-04-02T15:35:57;4.50;;;2.00;;
10335;SDS011;5213;53.548;9.930;2023-04-02T15:38:44;4.28;;;2.22;;
10335;SDS011;5213;53.548;9.930;2023-04-02T15:41:13;5.18;;;1.42;;
10335;SDS011;5213;53.548;9.930;2023-04-02T15:43:41;2.78;;;1.45;;
10335;SDS011;5213;53.548;9.930;2023-04-02T15:58:55;3.95;;;1.77;;
10335;SDS011;5213;53.548;9.930;2023-04-02T16:06:49;2.10;;;1.60;;
10335;SDS011;5213;53.548;9.930;2023-04-02T16:11:49;4.50;;;2.40;;
10335;SDS011;5213;53.548;9.930;2023-04-02T16:14:19;3.63;;;1.65;;
10335;SDS011;5213;53.548;9.930;2023-04-02T16:16:47;2.55;;;1.38;;
10335;SDS011;5213;53.548;9.930;2023-04-02T16:19:17;2.30;;;1.83;;
10335;SDS011;5213;53.548;9.930;2023-04-02T16:21:56;1.58;;;1.48;;
10335;SDS011;5213;53.548;9.930;2023-04-02T16:24:23;5.85;;;2.65;;
10335;SDS011;5213;53.548;9.930;2023-04-02T16:27:04;7.80;;;3.90;;
10335;SDS011;5213;53.548;9.930;2023-04-02T16:29:46;2.90;;;1.92;;
10335;SDS011;5213;53.548;9.930;2023-04-02T16:46:06;2.78;;;1.50;;
10335;SDS011;5213;53.548;9.930;2023-04-02T16:51:23;2.05;;;1.30;;
10335;SDS011;5213;53.548;9.930;2023-04-02T16:53:57;2.80;;;1.83;;
10335;SDS011;5213;53.548;9.930;2023-04-02T16:59:02;4.50;;;3.13;;
10335;SDS011;5213;53.548;9.930;2023-04-02T17:11:49;4.07;;;2.40;;
10335;SDS011;5213;53.548;9.930;2023-04-02T17:14:23;4.40;;;2.60;;
10335;SDS011;5213;53.548;9.930;2023-04-02T17:16:50;4.10;;;2.28;;
10335;SDS011;5213;53.548;9.930;2023-04-02T17:19:19;2.45;;;1.17;;
10335;SDS011;5213;53.548;9.930;2023-04-02T17:21:47;2.10;;;1.30;;
10335;SDS011;5213;53.548;9.930;2023-04-02T17:27:00;1.55;;;1.38;;
10335;SDS011;5213;53.548;9.930;2023-04-02T17:29:31;2.20;;;1.30;;
10335;SDS011;5213;53.548;9.930;2023-04-02T17:31:59;2.47;;;1.70;;
10335;SDS011;5213;53.548;9.930;2023-04-02T17:34:26;2.65;;;2.08;;
10335;SDS011;5213;53.548;9.930;2023-04-02T18:12:55;8.05;;;3.85;;
10335;SDS011;5213;53.548;9.930;2023-04-02T18:20:34;4.65;;;2.60;;
10335;SDS011;5213;53.548;9.930;2023-04-02T18:23:07;5.90;;;3.17;;
10335;SDS011;5213;53.548;9.930;2023-04-02T18:25:52;5.03;;;3.28;;
10335;SDS011;5213;53.548;9.930;2023-04-02T18:28:32;3.95;;;2.22;;
10335;SDS011;5213;53.548;9.930;2023-04-02T18:31:19;3.40;;;1.88;;
10335;SDS011;5213;53.548;9.930;2023-04-02T18:36:20;4.70;;;2.65;;
10335;SDS011;5213;53.548;9.930;2023-04-02T18:51:57;3.63;;;1.90;;
10335;SDS011;5213;53.548;9.930;2023-04-02T18:54:28;3.95;;;2.65;;
10335;SDS011;5213;53.548;9.930;2023-04-02T18:56:56;5.50;;;2.67;;
10335;SDS011;5213;53.548;9.930;2023-04-02T18:59:33;7.35;;;3.33;;
10335;SDS011;5213;53.548;9.930;2023-04-02T19:04:56;4.63;;;2.47;;
10335;SDS011;5213;53.548;9.930;2023-04-02T19:07:22;5.90;;;1.80;;
10335;SDS011;5213;53.548;9.930;2023-04-02T19:09:51;2.47;;;2.15;;
10335;SDS011;5213;53.548;9.930;2023-04-02T19:12:18;3.70;;;1.80;;
10335;SDS011;5213;53.548;9.930;2023-04-02T19:14:45;2.92;;;1.80;;
10335;SDS011;5213;53.548;9.930;2023-04-02T19:22:14;2.33;;;1.85;;
10335;SDS011;5213;53.548;9.930;2023-04-02T19:32:30;2.83;;;2.20;;
10335;SDS011;5213;53.548;9.930;2023-04-02T19:37:40;3.20;;;1.63;;
10335;SDS011;5213;53.548;9.930;2023-04-02T19:42:41;4.82;;;1.90;;
10335;SDS011;5213;53.548;9.930;2023-04-02T19:48:20;1.92;;;1.38;;
10335;SDS011;5213;53.548;9.930;2023-04-02T19:50:47;2.67;;;1.90;;
10335;SDS011;5213;53.548;9.930;2023-04-02T19:53:14;3.05;;;1.60;;
10335;SDS011;5213;53.548;9.930;2023-04-02T19:55:40;2.08;;;1.80;;
10335;SDS011;5213;53.548;9.930;2023-04-02T19:58:26;2.92;;;1.60;;
10335;SDS011;5213;53.548;9.930;2023-04-02T20:00:53;2.40;;;1.92;;
10335;SDS011;5213;53.548;9.930;2023-04-02T20:03:19;5.25;;;1.95;;
10335;SDS011;5213;53.548;9.930;2023-04-02T20:05:45;4.90;;;2.08;;
10335;SDS011;5213;53.548;9.930;2023-04-02T20:08:11;4.85;;;1.95;;
10335;SDS011;5213;53.548;9.930;2023-04-02T20:10:37;3.15;;;2.15;;
10335;SDS011;5213;53.548;9.930;2023-04-02T20:13:03;2.03;;;1.80;;
10335;SDS011;5213;53.548;9.930;2023-04-02T20:15:30;5.72;;;2.45;;
10335;SDS011;5213;53.548;9.930;2023-04-02T20:17:56;4.35;;;1.80;;
10335;SDS011;5213;53.548;9.930;2023-04-02T20:20:22;4.30;;;1.88;;
10335;SDS011;5213;53.548;9.930;2023-04-02T20:22:48;4.10;;;1.75;;
10335;SDS011;5213;53.548;9.930;2023-04-02T20:25:14;2.05;;;1.85;;
10335;SDS011;5213;53.548;9.930;2023-04-02T20:27:41;3.60;;;1.98;;
10335;SDS011;5213;53.548;9.930;2023-04-02T20:30:07;3.53;;;2.05;;